Time;durP1;ratioP1;P1;durP2;ratioP2;P2;SDS_P1;SDS_P2;PMS_P1;PMS_P2;Temp;Humidity;BMP_temperature;BMP_pressure;BME280_temperature;BME280_humidity;BME280_pressure;Samples;Min_cycle;Max_cycle;Signal;HPM_P1;HPM_P2
2023/12/30 00:00:10;;;;;;;0.97;0.97;;;6.90;99.90;;;;;;5186860;28;20179;-52
2023/12/30 00:02:41;;;;;;;0.83;0.83;;;7.00;99.90;;;;;;5202616;28;20192;-52
2023/12/30 00:05:12;;;;;;;0.60;0.60;;;7.00;99.90;;;;;;5201822;28;20437;-51
2023/12/30 00:07:44;;;;;;;0.83;0.83;;;7.00;99.90;;;;;;5200013;28;20223;-49
2023/12/30 00:10:15;;;;;;;4.77;0.50;;;7.00;99.90;;;;;;5203577;28;20669;-49
2023/12/30 00:12:45;;;;;;;0.73;0.73;;;7.00;99.90;;;;;;5184666;28;20462;-50
2023/12/30 00:15:16;;;;;;;1.87;1.13;;;7.00;99.90;;;;;;5202765;28;20246;-50
2023/12/30 00:17:47;;;;;;;2.77;1.00;;;7.00;99.90;;;;;;5170401;28;20217;-49
2023/12/30 00:20:18;;;;;;;3.07;1.10;;;7.00;99.90;;;;;;5203766;28;20190;-50
2023/12/30 00:22:48;;;;;;;2.63;0.90;;;7.00;99.90;;;;;;5203231;28;20186;-50
2023/12/30 00:25:20;;;;;;;0.90;0.90;;;7.00;99.90;;;;;;5187111;28;20438;-50
2023/12/30 00:27:51;;;;;;;0.77;0.77;;;7.00;99.90;;;;;;5203911;28;20781;-50
2023/12/30 00:30:22;;;;;;;0.70;0.70;;;7.00;99.90;;;;;;5189543;28;20427;-50
2023/12/30 00:32:52;;;;;;;1.30;1.20;;;7.10;99.90;;;;;;5179095;28;20453;-50
2023/12/30 00:35:23;;;;;;;1.07;1.07;;;7.00;99.90;;;;;;5188884;28;20185;-49
2023/12/30 00:37:54;;;;;;;1.63;1.53;;;7.00;99.90;;;;;;5200997;28;20730;-50
2023/12/30 00:40:24;;;;;;;1.37;1.27;;;7.00;99.90;;;;;;5201573;28;20730;-50
2023/12/30 00:42:55;;;;;;;0.80;0.80;;;7.00;99.90;;;;;;5204923;28;20330;-50
2023/12/30 00:45:25;;;;;;;0.73;0.73;;;7.00;99.90;;;;;;5186187;28;20640;-50
2023/12/30 00:47:56;;;;;;;4.67;1.73;;;7.00;99.90;;;;;;5196210;28;20227;-50
2023/12/30 00:50:27;;;;;;;1.00;1.00;;;7.00;99.90;;;;;;5182945;28;20187;-49
2023/12/30 00:52:57;;;;;;;0.93;0.93;;;7.00;99.90;;;;;;5201716;28;20187;-49
2023/12/30 00:55:28;;;;;;;1.23;0.80;;;7.00;99.90;;;;;;5200859;28;20183;-49
2023/12/30 00:57:58;;;;;;;0.70;0.70;;;7.00;99.90;;;;;;5187828;28;20675;-50
2023/12/30 01:00:29;;;;;;;1.10;0.80;;;7.00;99.90;;;;;;5199533;28;20192;-53
2023/12/30 01:02:59;;;;;;;1.40;0.70;;;7.10;99.90;;;;;;5200413;28;20191;-50
2023/12/30 01:05:30;;;;;;;1.23;1.23;;;7.00;99.90;;;;;;5199905;28;20183;-49
2023/12/30 01:08:01;;;;;;;1.13;1.13;;;7.00;99.90;;;;;;5198197;28;20227;-50
2023/12/30 01:10:31;;;;;;;0.67;0.57;;;7.00;99.90;;;;;;5188089;28;20211;-50
2023/12/30 01:13:05;;;;;;;0.63;0.60;;;7.10;99.90;;;;;;5183768;28;20185;-49
2023/12/30 01:15:36;;;;;;;0.77;0.73;;;7.20;99.90;;;;;;5172488;28;20677;-50
2023/12/30 01:18:07;;;;;;;0.57;0.53;;;7.20;99.90;;;;;;5188969;28;20462;-49
2023/12/30 01:20:37;;;;;;;1.87;1.50;;;7.20;99.90;;;;;;5190698;28;20199;-50
2023/12/30 01:23:08;;;;;;;1.03;0.90;;;7.20;99.90;;;;;;5203278;28;20199;-50
2023/12/30 01:25:38;;;;;;;1.80;0.87;;;7.20;99.90;;;;;;5193189;28;20652;-49
2023/12/30 01:28:09;;;;;;;3.00;1.67;;;7.20;99.90;;;;;;5190000;28;20214;-49
2023/12/30 01:30:40;;;;;;;3.20;1.00;;;7.10;99.90;;;;;;5205960;28;20191;-49
2023/12/30 01:33:11;;;;;;;2.23;0.90;;;7.10;99.90;;;;;;5203666;28;20461;-50
2023/12/30 01:35:41;;;;;;;3.90;0.80;;;7.00;99.90;;;;;;5205870;28;20680;-51
2023/12/30 01:38:12;;;;;;;1.27;0.93;;;7.00;99.90;;;;;;5206638;28;20226;-50
2023/12/30 01:40:43;;;;;;;1.07;1.07;;;6.90;99.90;;;;;;5205220;28;20197;-49
2023/12/30 01:43:27;;;;;;;7.53;0.90;;;6.90;99.90;;;;;;5202236;28;20195;-51
2023/12/30 01:46:05;;;;;;;1.23;0.97;;;6.80;99.90;;;;;;5189229;28;20188;-50
2023/12/30 01:48:36;;;;;;;3.70;1.17;;;6.80;99.90;;;;;;5206140;28;20969;-49
2023/12/30 01:51:09;;;;;;;0.70;0.47;;;6.70;99.90;;;;;;5191316;28;20951;-51
2023/12/30 01:53:42;;;;;;;1.87;0.70;;;6.60;99.90;;;;;;5194639;28;20484;-51
2023/12/30 01:56:13;;;;;;;0.93;0.57;;;6.60;99.90;;;;;;5194220;28;20433;-51
2023/12/30 01:58:43;;;;;;;1.17;0.67;;;6.60;99.90;;;;;;5190162;28;20460;-51
2023/12/30 02:01:15;;;;;;;2.23;0.80;;;6.50;99.90;;;;;;5205663;28;20247;-51
2023/12/30 02:03:46;;;;;;;1.40;0.83;;;6.50;99.90;;;;;;5189622;28;20211;-51
2023/12/30 02:06:17;;;;;;;2.13;0.80;;;6.40;99.90;;;;;;5207365;28;20422;-50
2023/12/30 02:08:48;;;;;;;1.60;0.60;;;6.50;99.90;;;;;;5204765;28;20528;-49
2023/12/30 02:11:18;;;;;;;1.27;1.17;;;6.50;99.90;;;;;;5193584;28;20175;-51
2023/12/30 02:13:49;;;;;;;2.77;1.23;;;6.50;99.90;;;;;;5187174;28;20229;-49
2023/12/30 02:16:20;;;;;;;2.20;1.60;;;6.60;99.90;;;;;;5189959;28;20184;-49
2023/12/30 02:18:51;;;;;;;1.57;1.47;;;6.60;99.90;;;;;;5206762;28;20218;-50
2023/12/30 02:21:21;;;;;;;4.43;1.17;;;6.60;99.90;;;;;;5193517;28;20210;-51
2023/12/30 02:23:53;;;;;;;1.17;1.17;;;6.60;99.90;;;;;;5188768;28;20563;-51
2023/12/30 02:26:24;;;;;;;2.33;1.60;;;6.60;99.90;;;;;;5189685;28;20180;-52
2023/12/30 02:28:54;;;;;;;1.47;1.17;;;6.60;99.90;;;;;;5188087;28;20470;-51
2023/12/30 02:31:25;;;;;;;2.50;1.87;;;6.60;99.90;;;;;;5188267;28;20187;-52
2023/12/30 02:33:56;;;;;;;5.03;1.53;;;6.70;99.90;;;;;;5194064;28;20181;-49
2023/12/30 02:36:26;;;;;;;5.07;1.53;;;6.70;99.90;;;;;;5203274;28;20184;-50
2023/12/30 02:38:57;;;;;;;3.27;1.60;;;6.70;99.90;;;;;;5189427;28;20218;-51
2023/12/30 02:41:27;;;;;;;2.83;1.70;;;6.70;99.90;;;;;;5204745;28;20179;-51
2023/12/30 02:44:00;;;;;;;4.33;1.80;;;6.70;99.90;;;;;;5176379;28;20199;-51
2023/12/30 02:46:31;;;;;;;3.13;1.10;;;6.80;99.90;;;;;;5186032;28;20202;-51
2023/12/30 02:49:03;;;;;;;1.47;1.40;;;6.70;99.90;;;;;;5188367;28;20468;-50
2023/12/30 02:51:33;;;;;;;1.57;1.17;;;6.70;99.90;;;;;;5205418;28;20945;-50
2023/12/30 02:54:04;;;;;;;1.47;1.37;;;6.80;99.90;;;;;;5204608;28;20537;-50
2023/12/30 02:56:35;;;;;;;1.70;1.60;;;6.70;99.90;;;;;;5185048;28;20233;-50
2023/12/30 02:59:05;;;;;;;1.97;1.33;;;6.70;99.90;;;;;;5190296;28;20349;-50
2023/12/30 03:01:38;;;;;;;3.70;1.40;;;6.80;99.90;;;;;;5204279;28;20191;-51
2023/12/30 03:04:08;;;;;;;3.57;1.30;;;6.80;99.90;;;;;;5187187;28;20250;-51
2023/12/30 03:06:39;;;;;;;3.13;1.30;;;6.90;99.90;;;;;;5204221;28;20430;-50
2023/12/30 03:09:09;;;;;;;1.73;1.13;;;6.80;99.90;;;;;;5205329;28;20238;-52
2023/12/30 03:11:40;;;;;;;1.70;0.97;;;6.80;99.90;;;;;;5189069;28;20208;-48
2023/12/30 03:14:11;;;;;;;1.93;1.23;;;6.80;99.90;;;;;;5187459;28;20671;-48
2023/12/30 03:16:41;;;;;;;2.03;1.30;;;6.80;99.90;;;;;;5205075;28;20655;-48
2023/12/30 03:19:12;;;;;;;1.33;1.33;;;6.80;99.90;;;;;;5172800;28;20559;-47
2023/12/30 03:21:44;;;;;;;1.20;1.07;;;6.80;99.90;;;;;;5193353;28;20191;-51
2023/12/30 03:24:15;;;;;;;1.33;1.33;;;6.90;99.90;;;;;;5188034;28;20207;-48
2023/12/30 03:26:46;;;;;;;1.63;0.70;;;6.90;99.90;;;;;;5194415;28;20482;-47
2023/12/30 03:29:16;;;;;;;2.63;1.10;;;6.80;99.90;;;;;;5185566;28;20549;-47
2023/12/30 03:31:47;;;;;;;1.70;1.30;;;6.70;99.90;;;;;;5203200;28;20184;-47
2023/12/30 03:34:17;;;;;;;1.10;0.83;;;6.70;99.90;;;;;;5202361;28;20199;-49
2023/12/30 03:36:48;;;;;;;0.60;0.60;;;6.80;99.90;;;;;;5205828;28;20721;-48
2023/12/30 03:39:19;;;;;;;0.73;0.63;;;6.70;99.90;;;;;;5206142;28;20203;-47
2023/12/30 03:41:49;;;;;;;7.57;1.20;;;6.80;99.90;;;;;;5203142;28;20219;-48
2023/12/30 03:44:20;;;;;;;3.70;0.83;;;6.70;99.90;;;;;;5197565;28;20270;-47
2023/12/30 03:46:50;;;;;;;2.67;1.07;;;6.70;99.90;;;;;;5182476;28;20188;-48
2023/12/30 03:49:21;;;;;;;2.53;0.70;;;6.60;99.90;;;;;;5200996;28;20212;-48
2023/12/30 03:51:52;;;;;;;0.70;0.70;;;6.60;99.90;;;;;;5198234;28;20521;-49
2023/12/30 03:54:23;;;;;;;4.50;0.93;;;6.60;99.90;;;;;;5201910;28;20426;-48
2023/12/30 03:56:54;;;;;;;1.67;1.07;;;6.60;99.90;;;;;;5182874;28;20215;-50
2023/12/30 03:59:25;;;;;;;5.93;1.20;;;6.50;99.90;;;;;;5200673;28;20242;-48
2023/12/30 04:01:55;;;;;;;2.20;0.80;;;6.50;99.90;;;;;;5187281;28;20966;-48
2023/12/30 04:04:26;;;;;;;4.60;0.93;;;6.50;99.90;;;;;;5201776;28;20231;-48
2023/12/30 04:06:57;;;;;;;1.70;0.90;;;6.50;99.90;;;;;;5204250;28;20187;-48
2023/12/30 04:09:27;;;;;;;1.40;1.27;;;6.40;99.90;;;;;;5202593;28;20226;-48
2023/12/30 04:11:58;;;;;;;0.80;0.80;;;6.50;99.90;;;;;;5190526;28;20202;-48
2023/12/30 04:14:28;;;;;;;1.37;0.93;;;6.40;99.90;;;;;;5202255;28;20187;-47
2023/12/30 04:16:59;;;;;;;0.97;0.80;;;6.40;99.90;;;;;;5199703;28;20188;-47
2023/12/30 04:19:30;;;;;;;1.43;0.80;;;6.50;99.90;;;;;;5202983;28;20210;-50
2023/12/30 04:22:00;;;;;;;1.73;1.00;;;6.40;99.90;;;;;;5190638;28;20188;-49
2023/12/30 04:24:31;;;;;;;4.90;1.00;;;6.40;99.90;;;;;;5186551;28;20647;-48
2023/12/30 04:27:02;;;;;;;2.63;0.97;;;6.30;99.90;;;;;;5189773;28;20191;-47
2023/12/30 04:29:32;;;;;;;4.27;1.00;;;6.30;99.90;;;;;;5202570;28;20210;-48
2023/12/30 04:32:03;;;;;;;5.50;1.03;;;6.30;99.90;;;;;;5202035;28;20258;-48
2023/12/30 04:34:34;;;;;;;3.70;1.00;;;6.20;99.90;;;;;;5200586;28;20187;-49
2023/12/30 04:37:04;;;;;;;1.13;0.70;;;6.20;99.90;;;;;;5191433;28;20213;-48
2023/12/30 04:39:35;;;;;;;0.67;0.67;;;6.20;99.90;;;;;;5202595;28;20566;-49
2023/12/30 04:42:06;;;;;;;5.70;0.80;;;6.10;99.90;;;;;;5186055;28;20190;-48
2023/12/30 04:44:37;;;;;;;0.70;0.70;;;6.10;99.90;;;;;;5202331;28;20179;-47
2023/12/30 04:47:07;;;;;;;0.90;0.90;;;6.10;99.90;;;;;;5200919;28;20442;-48
2023/12/30 04:49:38;;;;;;;0.93;0.63;;;6.10;99.90;;;;;;5201214;28;20763;-48
2023/12/30 04:52:09;;;;;;;2.00;0.60;;;6.00;99.90;;;;;;5200319;28;20182;-48
2023/12/30 04:54:42;;;;;;;4.83;1.00;;;5.90;99.90;;;;;;5189247;28;20646;-48
2023/12/30 04:57:13;;;;;;;0.47;0.47;;;5.90;99.90;;;;;;5197056;28;20232;-49
2023/12/30 04:59:43;;;;;;;0.93;0.93;;;5.80;99.90;;;;;;5200460;28;20446;-47
2023/12/30 05:02:14;;;;;;;5.30;0.73;;;5.80;99.90;;;;;;5184046;28;20232;-49
2023/12/30 05:04:44;;;;;;;2.70;0.70;;;5.80;99.90;;;;;;5201795;28;20199;-49
2023/12/30 05:07:15;;;;;;;0.80;0.80;;;5.90;99.90;;;;;;5202211;28;20180;-49
2023/12/30 05:09:46;;;;;;;0.87;0.43;;;5.80;99.90;;;;;;5190751;28;20270;-47
2023/12/30 05:12:16;;;;;;;1.80;0.47;;;5.70;99.90;;;;;;5203259;28;20199;-47
2023/12/30 05:14:47;;;;;;;0.40;0.40;;;5.70;99.90;;;;;;5201828;28;20554;-48
2023/12/30 05:17:17;;;;;;;0.60;0.60;;;5.80;99.90;;;;;;5188562;28;20183;-48
2023/12/30 05:19:48;;;;;;;1.60;0.57;;;5.90;99.90;;;;;;5188670;28;20202;-49
2023/12/30 05:22:18;;;;;;;0.70;0.40;;;6.00;99.90;;;;;;5188366;28;20188;-48
2023/12/30 05:24:49;;;;;;;0.47;0.47;;;6.00;99.90;;;;;;5194538;28;20644;-48
2023/12/30 05:27:20;;;;;;;2.83;0.63;;;6.00;99.90;;;;;;5187423;28;20183;-47
2023/12/30 05:29:50;;;;;;;0.80;0.80;;;6.00;99.90;;;;;;5200179;28;20234;-47
2023/12/30 05:32:21;;;;;;;2.20;0.77;;;6.00;99.90;;;;;;5202059;28;20190;-47
2023/12/30 05:34:51;;;;;;;0.70;0.70;;;5.90;99.90;;;;;;5183825;28;20685;-47
2023/12/30 05:37:22;;;;;;;0.70;0.70;;;5.90;99.90;;;;;;5185207;28;20194;-46
2023/12/30 05:39:53;;;;;;;5.63;0.90;;;5.90;99.90;;;;;;5205668;28;20210;-47
2023/12/30 05:42:24;;;;;;;0.80;0.80;;;5.90;99.90;;;;;;5203536;28;20667;-47
2023/12/30 05:44:55;;;;;;;1.07;1.07;;;6.00;99.90;;;;;;5203875;28;20462;-46
2023/12/30 05:47:25;;;;;;;4.10;0.97;;;6.00;99.90;;;;;;5203215;28;20679;-48
2023/12/30 05:49:56;;;;;;;1.50;1.10;;;6.00;99.90;;;;;;5201511;28;20227;-47
2023/12/30 05:52:27;;;;;;;0.57;0.57;;;6.10;99.90;;;;;;5183873;28;20267;-47
2023/12/30 05:54:57;;;;;;;5.50;0.73;;;6.10;99.90;;;;;;5187515;28;20188;-48
2023/12/30 05:57:28;;;;;;;1.07;0.60;;;6.10;99.90;;;;;;5202550;28;20187;-48
2023/12/30 05:59:59;;;;;;;1.90;0.73;;;6.20;99.90;;;;;;5187590;28;20211;-48
2023/12/30 06:02:30;;;;;;;1.97;0.63;;;6.10;99.90;;;;;;5201626;28;20589;-47
2023/12/30 06:05:00;;;;;;;1.00;1.00;;;6.10;99.90;;;;;;5200711;28;20226;-48
2023/12/30 06:07:31;;;;;;;0.70;0.70;;;6.00;99.90;;;;;;5186643;28;20848;-49
2023/12/30 06:10:02;;;;;;;0.67;0.67;;;6.00;99.90;;;;;;5186383;28;20226;-47
2023/12/30 06:12:32;;;;;;;5.10;1.00;;;6.00;99.90;;;;;;5185541;28;20191;-48
2023/12/30 06:15:03;;;;;;;1.10;0.80;;;5.90;99.90;;;;;;5204568;28;20309;-48
2023/12/30 06:17:34;;;;;;;0.80;0.80;;;5.70;99.90;;;;;;5205084;28;20230;-48
2023/12/30 06:20:06;;;;;;;4.90;0.57;;;5.60;99.90;;;;;;5205897;28;20449;-49
2023/12/30 06:22:37;;;;;;;7.33;0.87;;;5.50;99.90;;;;;;5205329;28;20203;-48
2023/12/30 06:25:07;;;;;;;2.00;0.70;;;5.30;99.90;;;;;;5187573;28;20460;-48
2023/12/30 06:27:38;;;;;;;1.53;0.80;;;5.30;99.90;;;;;;5204083;28;20222;-49
2023/12/30 06:30:09;;;;;;;1.43;1.33;;;5.30;99.90;;;;;;5188366;28;20178;-48
2023/12/30 06:32:40;;;;;;;4.83;0.70;;;5.30;99.90;;;;;;5203086;28;20233;-50
2023/12/30 06:35:10;;;;;;;4.63;0.80;;;5.20;99.90;;;;;;5206832;28;20438;-49
2023/12/30 06:37:41;;;;;;;0.70;0.70;;;5.10;99.90;;;;;;5191212;28;20205;-48
2023/12/30 06:40:11;;;;;;;2.53;0.73;;;5.10;99.90;;;;;;5205121;28;20532;-48
2023/12/30 06:42:45;;;;;;;4.13;0.73;;;5.00;99.90;;;;;;5205671;28;20201;-48
2023/12/30 06:45:15;;;;;;;3.13;0.80;;;5.10;99.90;;;;;;5192548;28;20178;-48
2023/12/30 06:47:46;;;;;;;1.97;0.90;;;5.00;99.90;;;;;;5189633;28;20483;-48
2023/12/30 06:50:19;;;;;;;7.40;1.10;;;5.00;99.90;;;;;;5202814;28;20258;-48
2023/12/30 06:52:50;;;;;;;2.27;1.03;;;5.10;99.90;;;;;;5188081;28;20651;-48
2023/12/30 06:55:21;;;;;;;0.70;0.60;;;5.10;99.90;;;;;;5205446;28;20420;-49
2023/12/30 06:57:53;;;;;;;1.63;0.70;;;5.10;99.90;;;;;;5202610;28;20537;-49
2023/12/30 07:00:23;;;;;;;3.37;0.90;;;5.20;99.90;;;;;;5195197;28;20433;-49
2023/12/30 07:02:54;;;;;;;0.67;0.57;;;5.10;99.90;;;;;;5201244;28;20803;-49
2023/12/30 07:05:25;;;;;;;1.23;0.73;;;5.10;99.90;;;;;;5186356;28;20647;-48
2023/12/30 07:07:55;;;;;;;1.50;0.63;;;5.20;99.90;;;;;;5192538;28;20309;-47
2023/12/30 07:10:26;;;;;;;3.43;0.80;;;5.10;99.90;;;;;;5187814;28;20249;-49
2023/12/30 07:12:56;;;;;;;0.63;0.63;;;5.10;99.90;;;;;;5205781;28;20195;-49
2023/12/30 07:15:27;;;;;;;0.70;0.70;;;5.10;99.90;;;;;;5186527;28;20175;-49
2023/12/30 07:17:59;;;;;;;3.73;1.00;;;5.10;99.90;;;;;;5175407;28;20298;-50
2023/12/30 07:20:29;;;;;;;1.57;0.67;;;5.10;99.90;;;;;;5203968;28;20206;-49
2023/12/30 07:23:02;;;;;;;3.13;0.50;;;5.10;99.90;;;;;;5190259;28;20434;-48
2023/12/30 07:25:32;;;;;;;3.63;1.00;;;5.10;99.90;;;;;;5204524;28;20190;-48
2023/12/30 07:28:03;;;;;;;2.93;0.80;;;5.00;99.90;;;;;;5186793;28;20877;-49
2023/12/30 07:30:34;;;;;;;0.80;0.80;;;5.00;99.90;;;;;;5188304;28;20190;-49
2023/12/30 07:33:05;;;;;;;5.30;1.77;;;5.00;99.90;;;;;;5201957;28;20440;-48
2023/12/30 07:35:35;;;;;;;4.67;1.80;;;5.00;99.90;;;;;;5201151;28;20429;-48
2023/12/30 07:38:06;;;;;;;2.87;1.17;;;5.10;99.90;;;;;;5202188;28;20225;-49
2023/12/30 07:40:37;;;;;;;1.93;1.00;;;5.20;99.90;;;;;;5181381;28;20290;-48
2023/12/30 07:43:08;;;;;;;1.17;0.90;;;5.30;99.90;;;;;;5186022;28;20192;-47
2023/12/30 07:45:39;;;;;;;1.23;0.57;;;5.30;99.90;;;;;;5187251;28;20195;-46
2023/12/30 07:48:09;;;;;;;2.10;1.33;;;5.40;99.90;;;;;;5203226;28;20516;-47
2023/12/30 07:50:40;;;;;;;9.73;1.00;;;5.40;99.90;;;;;;5204410;28;20701;-47
2023/12/30 07:53:10;;;;;;;1.97;0.70;;;5.40;99.90;;;;;;5202218;28;20187;-48
2023/12/30 07:55:41;;;;;;;1.60;0.90;;;5.30;99.90;;;;;;5203603;28;20199;-46
2023/12/30 07:58:12;;;;;;;1.33;0.70;;;5.40;99.90;;;;;;5202685;28;20205;-46
2023/12/30 08:00:42;;;;;;;3.30;1.23;;;5.50;99.90;;;;;;5187766;28;20187;-48
2023/12/30 08:03:13;;;;;;;6.53;1.27;;;5.40;99.90;;;;;;5187364;28;20244;-48
2023/12/30 08:05:43;;;;;;;5.83;1.07;;;5.40;99.90;;;;;;5199877;28;20631;-50
2023/12/30 08:08:14;;;;;;;1.63;0.80;;;5.40;99.90;;;;;;5202295;28;20207;-46
2023/12/30 08:10:45;;;;;;;5.10;1.70;;;5.50;99.90;;;;;;5203473;28;20263;-47
2023/12/30 08:13:16;;;;;;;8.80;1.10;;;5.60;99.90;;;;;;5188591;28;20222;-47
2023/12/30 08:15:46;;;;;;;1.70;0.70;;;5.60;99.90;;;;;;5194738;28;20275;-46
2023/12/30 08:18:17;;;;;;;1.50;1.00;;;5.60;99.90;;;;;;5190223;28;20453;-47
2023/12/30 08:20:51;;;;;;;2.20;0.80;;;5.70;99.90;;;;;;5184212;28;20210;-48
2023/12/30 08:23:21;;;;;;;7.40;1.07;;;5.60;99.90;;;;;;5202286;28;20818;-47
2023/12/30 08:25:52;;;;;;;1.07;1.00;;;5.70;99.90;;;;;;5201506;28;20449;-48
2023/12/30 08:28:23;;;;;;;6.13;1.00;;;5.70;99.90;;;;;;5205773;28;20207;-49
2023/12/30 08:30:54;;;;;;;2.93;0.90;;;5.60;99.90;;;;;;5185473;28;20241;-48
2023/12/30 08:33:26;;;;;;;1.63;1.20;;;5.80;99.90;;;;;;5197938;28;20179;-52
2023/12/30 08:35:57;;;;;;;4.40;1.70;;;5.90;99.90;;;;;;5188997;28;20442;-47
2023/12/30 08:38:31;;;;;;;8.37;1.20;;;5.90;99.90;;;;;;5199627;28;20527;-50
2023/12/30 08:41:02;;;;;;;4.17;0.90;;;6.00;99.90;;;;;;5197587;28;20659;-48
2023/12/30 08:43:32;;;;;;;2.87;0.83;;;5.90;99.90;;;;;;5205432;28;20484;-46
2023/12/30 08:46:03;;;;;;;0.80;0.80;;;5.80;99.90;;;;;;5179920;28;20198;-50
2023/12/30 08:48:34;;;;;;;4.63;1.10;;;5.80;99.90;;;;;;5178378;28;20646;-46
2023/12/30 08:51:04;;;;;;;1.70;0.60;;;5.80;99.90;;;;;;5200753;28;20183;-47
2023/12/30 08:53:35;;;;;;;0.90;0.90;;;5.80;99.90;;;;;;5200885;28;20228;-49
2023/12/30 08:56:06;;;;;;;1.90;0.60;;;5.80;99.90;;;;;;5183736;28;20218;-48
2023/12/30 08:58:37;;;;;;;1.37;1.27;;;5.80;99.90;;;;;;5201299;28;20214;-47
2023/12/30 09:01:07;;;;;;;5.37;0.90;;;5.70;99.90;;;;;;5185477;28;20187;-47
2023/12/30 09:03:38;;;;;;;3.00;0.97;;;5.80;99.90;;;;;;5199374;28;20825;-47
2023/12/30 09:06:08;;;;;;;6.00;1.27;;;5.80;99.90;;;;;;5186890;28;20237;-47
2023/12/30 09:08:41;;;;;;;2.57;1.03;;;5.80;99.90;;;;;;5191065;28;20272;-51
2023/12/30 09:11:22;;;;;;;2.30;0.80;;;5.90;99.90;;;;;;5166336;28;20176;-49
2023/12/30 09:13:53;;;;;;;3.80;1.07;;;5.80;99.90;;;;;;5195846;28;20428;-48
2023/12/30 09:16:23;;;;;;;1.83;1.03;;;5.80;99.90;;;;;;5189814;28;20421;-47
2023/12/30 09:18:54;;;;;;;1.27;0.80;;;5.90;99.90;;;;;;5201422;28;20214;-46
2023/12/30 09:21:24;;;;;;;6.30;1.10;;;6.00;99.90;;;;;;5201069;28;20651;-48
2023/12/30 09:23:56;;;;;;;4.47;1.50;;;6.20;99.90;;;;;;5192750;28;20218;-48
2023/12/30 09:26:27;;;;;;;5.77;2.87;;;6.20;99.90;;;;;;5183203;28;20190;-47
2023/12/30 09:28:57;;;;;;;1.13;0.60;;;6.20;99.90;;;;;;5182771;28;20465;-47
2023/12/30 09:31:28;;;;;;;9.43;1.07;;;6.40;99.90;;;;;;5198631;28;20262;-50
2023/12/30 09:33:59;;;;;;;3.97;0.70;;;6.50;99.90;;;;;;5184455;28;20180;-48
2023/12/30 09:36:29;;;;;;;1.73;1.30;;;6.50;99.90;;;;;;5198835;28;20215;-47
2023/12/30 09:39:00;;;;;;;1.30;0.87;;;6.50;99.90;;;;;;5193467;28;20227;-48
2023/12/30 09:41:34;;;;;;;2.53;1.13;;;6.60;99.90;;;;;;5199400;28;20234;-49
2023/12/30 09:44:06;;;;;;;6.10;1.23;;;6.60;99.90;;;;;;5200761;28;20199;-48
2023/12/30 09:46:37;;;;;;;4.00;0.93;;;6.70;99.90;;;;;;5203490;28;20422;-47
2023/12/30 09:49:08;;;;;;;4.73;1.83;;;6.70;99.90;;;;;;5188029;28;20527;-48
2023/12/30 09:51:39;;;;;;;2.10;1.37;;;6.80;99.90;;;;;;5207517;28;20258;-48
2023/12/30 09:54:10;;;;;;;5.10;2.20;;;6.80;99.90;;;;;;5206782;28;20458;-47
2023/12/30 09:56:41;;;;;;;3.43;0.90;;;6.90;99.90;;;;;;5184077;28;20190;-48
2023/12/30 09:59:12;;;;;;;1.47;0.80;;;6.90;99.90;;;;;;5193194;28;20485;-49
2023/12/30 10:01:42;;;;;;;9.00;1.47;;;6.90;99.90;;;;;;5194050;28;20524;-49
2023/12/30 10:04:13;;;;;;;3.73;1.20;;;7.10;99.90;;;;;;5202022;28;20198;-47
2023/12/30 10:06:45;;;;;;;5.23;1.80;;;7.20;99.90;;;;;;5201341;28;20358;-48
2023/12/30 10:09:16;;;;;;;3.07;1.23;;;7.20;99.90;;;;;;5206497;28;20211;-48
2023/12/30 10:11:47;;;;;;;5.87;1.60;;;7.30;99.90;;;;;;5208100;28;20925;-46
2023/12/30 10:14:18;;;;;;;2.17;1.47;;;7.40;99.90;;;;;;5208444;28;20537;-48
2023/12/30 10:16:48;;;;;;;3.03;1.63;;;7.40;99.90;;;;;;5194959;28;21033;-48
2023/12/30 10:19:19;;;;;;;8.03;1.60;;;7.40;99.90;;;;;;5190884;28;20207;-48
2023/12/30 10:21:50;;;;;;;1.43;1.00;;;7.40;99.90;;;;;;5188261;28;20183;-47
2023/12/30 10:24:20;;;;;;;9.60;1.53;;;7.50;99.90;;;;;;5194457;28;20626;-47
2023/12/30 10:26:51;;;;;;;4.83;1.70;;;7.50;99.90;;;;;;5185096;28;20205;-48
2023/12/30 10:29:22;;;;;;;5.33;1.83;;;7.50;99.90;;;;;;5192604;28;20211;-47
2023/12/30 10:32:03;;;;;;;1.40;1.30;;;7.50;99.90;;;;;;5188907;28;20513;-47
2023/12/30 10:34:35;;;;;;;10.50;1.63;;;7.50;99.90;;;;;;5211109;28;20174;-48
2023/12/30 10:37:08;;;;;;;12.83;1.67;;;7.60;99.90;;;;;;5191492;28;20428;-47
2023/12/30 10:39:41;;;;;;;2.80;1.57;;;7.70;99.90;;;;;;5191391;28;20457;-49
2023/12/30 10:42:13;;;;;;;1.60;1.10;;;7.60;99.90;;;;;;5191554;28;20438;-48
2023/12/30 10:44:44;;;;;;;2.83;1.17;;;7.70;99.90;;;;;;5191624;28;20446;-46
2023/12/30 10:47:15;;;;;;;15.87;2.30;;;7.70;99.90;;;;;;5205288;28;20795;-48
2023/12/30 10:49:53;;;;;;;3.87;1.30;;;7.70;99.90;;;;;;5208645;28;20462;-47
2023/12/30 10:52:27;;;;;;;5.80;2.00;;;7.70;99.90;;;;;;5205021;28;21060;-48
2023/12/30 10:55:06;;;;;;;6.00;1.50;;;7.80;99.90;;;;;;5188435;28;20438;-48
2023/12/30 10:57:45;;;;;;;6.97;1.60;;;7.60;99.90;;;;;;5191848;28;20469;-48
2023/12/30 11:00:20;;;;;;;14.83;2.67;;;7.60;99.90;;;;;;5188011;28;20496;-48
2023/12/30 11:02:51;;;;;;;6.53;1.43;;;7.60;99.90;;;;;;5180071;28;20450;-49
2023/12/30 11:06:04;;;;;;;6.37;1.60;;;7.50;99.90;;;;;;5198957;28;20455;-48
2023/12/30 11:08:35;;;;;;;4.33;2.00;;;7.50;99.90;;;;;;5161074;28;20475;-48
2023/12/30 11:11:07;;;;;;;8.60;2.27;;;7.50;99.90;;;;;;5205068;28;20415;-49
2023/12/30 11:13:41;;;;;;;7.17;2.00;;;7.50;99.90;;;;;;5203222;28;20434;-48
2023/12/30 11:16:17;;;;;;;6.23;2.33;;;7.60;99.90;;;;;;5180885;28;20441;-53
2023/12/30 11:18:55;;;;;;;4.07;2.00;;;7.70;99.90;;;;;;5183963;28;20452;-48
2023/12/30 11:21:59;;;;;;;4.93;1.50;;;7.80;99.90;;;;;;5177402;28;20446;-49
2023/12/30 11:24:30;;;;;;;7.57;2.00;;;7.70;99.90;;;;;;5172162;28;20508;-49
2023/12/30 11:27:01;;;;;;;3.00;1.43;;;7.70;99.90;;;;;;5201936;28;20438;-48
2023/12/30 11:29:34;;;;;;;3.23;1.57;;;7.80;99.90;;;;;;5201268;28;20211;-50
2023/12/30 11:32:05;;;;;;;4.73;1.67;;;7.90;99.90;;;;;;5198573;28;20671;-48
2023/12/30 11:34:36;;;;;;;11.10;1.90;;;7.80;99.90;;;;;;5183969;28;20434;-49
2023/12/30 11:37:09;;;;;;;6.53;1.93;;;7.90;99.90;;;;;;5187374;28;20759;-49
2023/12/30 11:39:41;;;;;;;9.30;2.10;;;7.90;99.90;;;;;;5189951;28;20521;-53
2023/12/30 11:42:11;;;;;;;3.23;1.90;;;8.00;99.90;;;;;;5190543;28;20525;-48
2023/12/30 11:44:43;;;;;;;3.67;1.67;;;8.10;99.90;;;;;;5191943;28;20525;-50
2023/12/30 11:47:21;;;;;;;13.13;2.20;;;8.10;99.90;;;;;;5200959;28;20647;-47
2023/12/30 11:50:02;;;;;;;3.57;1.40;;;8.10;99.90;;;;;;5203419;28;20457;-48
2023/12/30 11:52:36;;;;;;;4.63;1.57;;;8.20;99.90;;;;;;5202132;28;20488;-48
2023/12/30 11:55:07;;;;;;;11.80;1.77;;;8.10;99.90;;;;;;5185339;28;20436;-49
2023/12/30 11:57:38;;;;;;;16.67;1.87;;;8.10;99.90;;;;;;5191398;28;20511;-47
2023/12/30 12:00:10;;;;;;;3.73;2.10;;;8.00;99.90;;;;;;5185462;28;20679;-50
2023/12/30 12:02:40;;;;;;;3.23;1.70;;;8.00;99.90;;;;;;5196849;28;20259;-48
2023/12/30 12:05:12;;;;;;;8.37;2.40;;;8.00;99.90;;;;;;5189687;28;21025;-49
2023/12/30 12:07:42;;;;;;;9.23;2.40;;;8.00;99.90;;;;;;5199260;28;20242;-47
2023/12/30 12:10:13;;;;;;;7.40;2.10;;;7.90;99.90;;;;;;5187460;28;20457;-48
2023/12/30 12:12:45;;;;;;;3.80;1.43;;;7.80;99.90;;;;;;5201764;28;20243;-48
2023/12/30 12:15:17;;;;;;;1.83;1.30;;;7.70;99.90;;;;;;5198442;28;20184;-48
2023/12/30 12:17:49;;;;;;;10.73;1.80;;;7.70;99.90;;;;;;5184789;28;20483;-50
2023/12/30 12:20:20;;;;;;;2.97;1.67;;;7.70;99.90;;;;;;5187279;28;20431;-48
2023/12/30 12:22:54;;;;;;;2.60;1.50;;;7.60;99.90;;;;;;5201161;28;20426;-48
2023/12/30 12:25:25;;;;;;;8.23;1.57;;;7.60;99.90;;;;;;5182351;28;20183;-47
2023/12/30 12:27:56;;;;;;;2.00;1.50;;;7.70;99.90;;;;;;5182128;28;20892;-49
2023/12/30 12:30:27;;;;;;;5.23;2.03;;;7.60;99.90;;;;;;5185795;28;20664;-49
2023/12/30 12:32:57;;;;;;;5.07;2.17;;;7.60;99.90;;;;;;5196604;28;20474;-48
2023/12/30 12:35:30;;;;;;;8.43;2.10;;;7.50;99.90;;;;;;5183113;28;20199;-49
2023/12/30 12:38:01;;;;;;;4.80;1.63;;;7.70;99.90;;;;;;5204153;28;20195;-48
2023/12/30 12:40:34;;;;;;;16.33;1.87;;;7.60;99.90;;;;;;5197148;28;20431;-51
2023/12/30 12:43:05;;;;;;;6.43;1.77;;;7.50;99.90;;;;;;5200877;28;20991;-50
2023/12/30 12:45:36;;;;;;;11.10;2.13;;;7.60;99.90;;;;;;5179863;28;20480;-47
2023/12/30 12:48:07;;;;;;;4.20;1.30;;;7.50;99.90;;;;;;5193497;28;20266;-49
2023/12/30 12:50:38;;;;;;;11.43;2.10;;;7.60;99.90;;;;;;5182258;28;20195;-50
2023/12/30 12:53:08;;;;;;;8.60;2.60;;;7.60;99.90;;;;;;5197816;28;20773;-48
2023/12/30 12:55:40;;;;;;;6.90;2.60;;;7.60;99.90;;;;;;5201926;28;20188;-50
2023/12/30 12:58:11;;;;;;;4.43;2.63;;;7.70;99.90;;;;;;5199984;28;20195;-50
2023/12/30 13:00:42;;;;;;;10.73;2.03;;;7.80;99.90;;;;;;5189898;28;20453;-48
2023/12/30 13:03:12;;;;;;;7.10;1.90;;;7.90;99.90;;;;;;5176612;28;20182;-49
2023/12/30 13:05:43;;;;;;;7.63;1.83;;;8.10;99.90;;;;;;5198014;28;20501;-48
2023/12/30 13:08:14;;;;;;;7.40;1.50;;;8.30;99.90;;;;;;5184601;28;20808;-50
2023/12/30 13:10:48;;;;;;;5.07;1.93;;;8.40;99.90;;;;;;5189402;28;20194;-50
2023/12/30 13:13:19;;;;;;;8.73;2.10;;;8.50;99.90;;;;;;5198151;28;20266;-51
2023/12/30 13:15:50;;;;;;;9.33;2.20;;;8.50;99.90;;;;;;5196994;28;20462;-50
2023/12/30 13:18:21;;;;;;;2.67;1.63;;;8.50;99.90;;;;;;5200643;28;20545;-51